Time;durP1;ratioP1;P1;durP2;ratioP2;P2;SDS_P1;SDS_P2;PMS_P1;PMS_P2;Temp;Humidity;BMP_temperature;BMP_pressure;BME280_temperature;BME280_humidity;BME280_pressure;Samples;Min_cycle;Max_cycle;Signal;HPM_P1;HPM_P2
2023/12/05 00:03:59;;;;;;;81.40;43.40;;;;;;;-4.41;100.00;99942.19;179821;1267;58273;-81
2023/12/05 00:08:02;;;;;;;94.30;49.50;;;;;;;-4.31;100.00;99937.61;178739;1272;46009;-81
2023/12/05 00:12:04;;;;;;;70.20;40.30;;;;;;;-4.24;100.00;99933.09;177910;1267;46175;-82
2023/12/05 00:16:07;;;;;;;72.00;41.40;;;;;;;-4.20;99.99;99932.83;177400;1267;46034;-81
2023/12/05 00:20:12;;;;;;;53.00;31.70;;;;;;;-4.21;99.77;99924.71;176832;1267;45992;-82
2023/12/05 00:24:14;;;;;;;81.10;43.30;;;;;;;-4.19;99.39;99926.91;176849;1267;58226;-80
2023/12/05 00:28:16;;;;;;;75.80;41.90;;;;;;;-4.23;99.97;99933.75;176820;1267;44575;-82
2023/12/05 00:32:17;;;;;;;71.70;40.60;;;;;;;-4.25;100.00;99937.61;176661;1267;46100;-82
2023/12/05 00:36:19;;;;;;;69.50;37.60;;;;;;;-4.30;100.00;99933.43;177799;1267;45547;-82
2023/12/05 00:40:21;;;;;;;81.90;38.80;;;;;;;-4.44;100.00;99942.61;176914;1267;46136;-82
2023/12/05 00:44:23;;;;;;;83.80;43.80;;;;;;;-4.52;100.00;99942.11;177455;1268;59279;-82
2023/12/05 00:48:25;;;;;;;77.70;46.30;;;;;;;-4.60;100.00;99945.06;176754;1267;46035;-81
2023/12/05 00:52:27;;;;;;;78.70;42.00;;;;;;;-4.69;100.00;99946.67;176511;1272;46337;-81
2023/12/05 00:56:29;;;;;;;72.90;45.00;;;;;;;-4.78;100.00;99942.55;177215;1267;45979;-82
2023/12/05 01:00:30;;;;;;;78.50;42.00;;;;;;;-4.80;100.00;99943.84;177176;1267;46017;-82
2023/12/05 01:04:32;;;;;;;79.90;39.20;;;;;;;-4.86;100.00;99943.10;177099;1267;60139;-80
2023/12/05 01:08:34;;;;;;;81.10;43.20;;;;;;;-4.89;100.00;99943.18;176903;1267;46269;-82
2023/12/05 01:12:36;;;;;;;61.80;33.60;;;;;;;-4.93;100.00;99948.11;176712;1267;45946;-82
2023/12/05 01:16:43;;;;;;;57.90;33.00;;;;;;;-4.97;100.00;99949.75;176574;1272;46093;-82
2023/12/05 01:20:45;;;;;;;75.00;37.40;;;;;;;-4.96;100.00;99941.95;177356;1267;46003;-81
2023/12/05 01:24:56;;;;;;;71.20;38.40;;;;;;;-4.94;100.00;99936.18;177161;1267;57937;-82
2023/12/05 01:28:59;;;;;;;64.80;37.00;;;;;;;-4.84;100.00;99932.34;177813;1267;243332;-82
2023/12/05 01:33:01;;;;;;;49.20;30.90;;;;;;;-4.68;100.00;99929.02;176357;1268;46127;-82
2023/12/05 01:37:03;;;;;;;67.50;35.10;;;;;;;-4.55;100.00;99924.89;177004;1267;46053;-82
2023/12/05 01:41:07;;;;;;;62.90;33.40;;;;;;;-4.47;100.00;99919.13;176540;1267;46129;-82
2023/12/05 01:45:09;;;;;;;67.50;34.80;;;;;;;-4.42;100.00;99910.19;176796;1267;58215;-82
2023/12/05 01:49:11;;;;;;;60.90;33.80;;;;;;;-4.39;100.00;99911.84;176848;1267;46028;-82
2023/12/05 01:53:23;;;;;;;58.10;33.50;;;;;;;-4.37;100.00;99910.76;177075;1270;46122;-81
2023/12/05 01:57:25;;;;;;;60.80;32.20;;;;;;;-4.36;100.00;99907.27;176713;1267;46158;-81
2023/12/05 02:01:28;;;;;;;54.70;30.10;;;;;;;-4.39;100.00;99905.27;177144;1267;46148;-81
2023/12/05 02:05:31;;;;;;;56.60;34.80;;;;;;;-4.37;100.00;99903.65;177079;1267;57949;-81
2023/12/05 02:09:37;;;;;;;57.00;34.00;;;;;;;-4.33;100.00;99906.30;178478;1267;46127;-82
2023/12/05 02:13:39;;;;;;;57.10;32.70;;;;;;;-4.31;100.00;99902.61;177139;1267;46014;-82
2023/12/05 02:18:04;;;;;;;61.30;33.00;;;;;;;-4.27;100.00;99900.62;177274;1268;46018;-81
2023/12/05 02:22:24;;;;;;;59.20;34.60;;;;;;;-4.22;100.00;99893.23;177160;1267;46126;-81
2023/12/05 02:26:35;;;;;;;54.50;28.20;;;;;;;-4.16;100.00;99895.29;175900;1268;59386;-81
2023/12/05 02:30:37;;;;;;;50.30;31.10;;;;;;;-4.07;100.00;99887.77;176727;1268;46046;-82
2023/12/05 02:34:39;;;;;;;47.90;27.00;;;;;;;-4.02;100.00;99881.08;176662;1267;46068;-82
2023/12/05 02:38:57;;;;;;;47.70;29.50;;;;;;;-4.01;100.00;99873.08;176724;1268;46182;-81
2023/12/05 02:43:04;;;;;;;56.80;30.30;;;;;;;-4.02;100.00;99863.05;176723;1271;46104;-82
2023/12/05 02:47:09;;;;;;;50.40;30.00;;;;;;;-4.05;100.00;99856.56;176564;1267;59468;-82
2023/12/05 02:51:11;;;;;;;52.00;30.40;;;;;;;-4.02;100.00;99856.48;176804;1267;46046;-82
2023/12/05 02:55:13;;;;;;;49.80;29.10;;;;;;;-3.98;100.00;99850.99;176476;1273;44831;-82
2023/12/05 02:59:15;;;;;;;51.70;29.50;;;;;;;-4.05;99.97;99848.23;176994;1268;46128;-82
2023/12/05 03:03:17;;;;;;;43.80;23.60;;;;;;;-4.02;99.99;99845.20;176863;1268;46012;-81
2023/12/05 03:07:19;;;;;;;57.80;32.70;;;;;;;-4.00;100.00;99846.71;176458;1268;58082;-82
2023/12/05 03:11:21;;;;;;;47.30;26.50;;;;;;;-3.96;100.00;99851.45;176763;1268;46120;-82
2023/12/05 03:15:23;;;;;;;52.80;30.40;;;;;;;-3.93;99.99;99851.70;176738;1268;48024;-82
2023/12/05 03:19:24;;;;;;;55.50;30.60;;;;;;;-3.86;99.77;99850.12;177625;1268;46135;-82
2023/12/05 03:23:27;;;;;;;53.50;29.00;;;;;;;-3.90;99.52;99849.00;179772;1268;43733;-82
2023/12/05 03:27:29;;;;;;;46.90;27.50;;;;;;;-3.94;99.13;99843.77;178165;1268;57918;-82
2023/12/05 03:31:35;;;;;;;56.80;31.90;;;;;;;-4.03;99.04;99843.34;177321;1268;45972;-81
2023/12/05 03:35:37;;;;;;;46.50;29.30;;;;;;;-4.10;99.36;99839.73;176648;1267;45997;-82
2023/12/05 03:39:39;;;;;;;64.90;33.90;;;;;;;-4.10;99.65;99841.96;176811;1267;46007;-81
2023/12/05 03:43:41;;;;;;;58.60;31.00;;;;;;;-4.12;99.81;99852.93;176465;1268;46196;-81
2023/12/05 03:47:43;;;;;;;53.90;27.70;;;;;;;-4.13;100.00;99854.52;177064;1267;59976;-82
2023/12/05 03:51:45;;;;;;;56.50;33.10;;;;;;;-4.08;100.00;99850.58;177411;1267;46075;-82
2023/12/05 03:55:47;;;;;;;61.40;32.20;;;;;;;-4.04;99.97;99850.96;176824;1268;46098;-82
2023/12/05 03:59:48;;;;;;;59.70;31.50;;;;;;;-4.00;99.99;99845.33;177568;1269;46034;-81
2023/12/05 04:03:50;;;;;;;45.20;28.10;;;;;;;-3.96;100.00;99846.58;176789;1268;46126;-82
2023/12/05 04:07:52;;;;;;;53.60;28.20;;;;;;;-3.94;99.98;99837.67;176208;1268;59501;-83
2023/12/05 04:11:54;;;;;;;61.30;31.90;;;;;;;-3.92;99.80;99835.91;176246;1270;46109;-82
2023/12/05 04:15:56;;;;;;;45.40;25.20;;;;;;;-3.89;99.86;99846.39;176776;1268;46130;-79
2023/12/05 04:19:59;;;;;;;49.30;27.10;;;;;;;-3.83;99.64;99842.23;177398;1270;46141;-82
2023/12/05 04:24:01;;;;;;;45.60;22.10;;;;;;;-3.82;99.31;99825.41;178651;1268;46123;-82
2023/12/05 04:28:03;;;;;;;41.10;25.80;;;;;;;-3.91;99.09;99828.95;177980;1270;59248;-83
2023/12/05 04:32:06;;;;;;;53.10;28.60;;;;;;;-3.97;98.72;99825.98;178046;1267;46088;-82
2023/12/05 04:36:09;;;;;;;48.50;26.20;;;;;;;-4.05;97.98;99825.19;177882;1271;46101;-82
2023/12/05 04:40:11;;;;;;;47.30;28.70;;;;;;;-4.13;97.70;99833.20;177473;1269;44570;-82
2023/12/05 04:44:13;;;;;;;54.90;30.00;;;;;;;-4.16;97.66;99828.61;176431;1268;46113;-82
2023/12/05 04:48:16;;;;;;;41.10;27.80;;;;;;;-4.20;97.31;99827.70;177051;1268;59495;-81
2023/12/05 04:52:18;;;;;;;58.70;29.10;;;;;;;-4.26;97.15;99829.77;176841;1267;46061;-81
2023/12/05 04:56:20;;;;;;;54.00;28.40;;;;;;;-4.31;96.77;99825.41;176521;1268;46149;-82
2023/12/05 05:00:22;;;;;;;51.70;29.60;;;;;;;-4.40;96.18;99818.20;176678;1267;46096;-82
2023/12/05 05:04:24;;;;;;;43.60;24.60;;;;;;;-4.49;96.35;99821.90;176151;1267;46015;-82
2023/12/05 05:08:26;;;;;;;45.60;26.60;;;;;;;-4.55;96.17;99822.58;176611;1268;58289;-80
2023/12/05 05:12:27;;;;;;;39.70;24.80;;;;;;;-4.60;96.37;99823.77;176760;1268;46118;-81
2023/12/05 05:16:29;;;;;;;39.60;24.60;;;;;;;-4.64;96.60;99831.30;176606;1268;46125;-81
2023/12/05 05:20:31;;;;;;;41.20;24.80;;;;;;;-4.67;96.58;99835.36;176610;1268;45977;-80
2023/12/05 05:24:33;;;;;;;43.20;26.70;;;;;;;-4.67;96.98;99824.30;176535;1272;46165;-81
2023/12/05 05:28:35;;;;;;;38.00;25.70;;;;;;;-4.67;97.08;99821.70;176737;1268;60006;-81
2023/12/05 05:32:37;;;;;;;40.70;24.90;;;;;;;-4.65;97.11;99828.39;176697;1267;46146;-81
2023/12/05 05:36:38;;;;;;;40.40;24.40;;;;;;;-4.68;96.74;99821.23;177477;1267;46145;-81
2023/12/05 05:40:40;;;;;;;42.90;27.40;;;;;;;-4.73;96.47;99821.14;176405;1268;45144;-81
2023/12/05 05:44:44;;;;;;;44.50;24.70;;;;;;;-4.83;96.39;99822.80;177331;1271;46015;-81
2023/12/05 05:48:46;;;;;;;38.20;23.80;;;;;;;-4.89;96.94;99824.17;176791;1268;57922;-81
2023/12/05 05:52:47;;;;;;;49.20;26.60;;;;;;;-4.90;97.30;99819.88;177606;1268;46239;-81
2023/12/05 05:56:49;;;;;;;41.90;23.10;;;;;;;-4.97;97.22;99814.16;178214;1268;46118;-81
2023/12/05 06:00:51;;;;;;;39.70;24.50;;;;;;;-5.02;97.13;99806.84;178462;1267;44459;-81
2023/12/05 06:04:53;;;;;;;46.60;24.60;;;;;;;-4.99;97.06;99805.73;176890;1268;46018;-81
2023/12/05 06:08:55;;;;;;;45.80;27.00;;;;;;;-4.95;97.18;99812.54;177521;1268;59440;-81
2023/12/05 06:12:58;;;;;;;42.60;23.30;;;;;;;-4.93;97.19;99818.55;176543;1268;46225;-81
2023/12/05 06:17:00;;;;;;;41.00;21.80;;;;;;;-4.93;97.78;99827.20;176404;1268;46033;-81
2023/12/05 06:21:01;;;;;;;45.20;26.40;;;;;;;-4.85;98.68;99834.63;177199;1267;46049;-81
2023/12/05 06:25:04;;;;;;;47.50;27.50;;;;;;;-4.75;98.77;99837.48;177016;1268;46116;-81
2023/12/05 06:29:06;;;;;;;49.40;26.40;;;;;;;-4.70;98.59;99841.88;177157;1268;58733;-82
2023/12/05 06:33:08;;;;;;;49.70;27.10;;;;;;;-4.69;98.54;99841.83;176918;1272;46091;-81
2023/12/05 06:37:10;;;;;;;50.50;24.90;;;;;;;-4.66;98.61;99841.05;176465;1268;45964;-81
2023/12/05 06:41:12;;;;;;;38.60;23.10;;;;;;;-4.64;98.73;99846.71;179410;1268;45871;-81
2023/12/05 06:45:14;;;;;;;34.00;24.40;;;;;;;-4.63;98.87;99851.19;178996;1267;45972;-81
2023/12/05 06:49:15;;;;;;;40.20;24.10;;;;;;;-4.60;98.59;99847.83;178172;1268;59809;-81
2023/12/05 06:53:17;;;;;;;38.90;21.00;;;;;;;-4.63;98.03;99845.48;177192;1273;46123;-81
2023/12/05 06:57:19;;;;;;;44.60;26.50;;;;;;;-4.64;98.32;99838.23;177443;1267;46116;-82
2023/12/05 07:01:21;;;;;;;54.60;29.50;;;;;;;-4.59;98.41;99843.65;177136;1267;45896;-81
2023/12/05 07:05:23;;;;;;;66.70;31.50;;;;;;;-4.60;97.95;99844.17;177977;1268;44830;-81
2023/12/05 07:09:25;;;;;;;41.30;25.10;;;;;;;-4.57;97.94;99841.84;178421;1268;59561;-81
2023/12/05 07:13:27;;;;;;;45.00;29.20;;;;;;;-4.50;98.28;99843.92;176515;1272;46123;-81
2023/12/05 07:17:29;;;;;;;46.70;25.60;;;;;;;-4.45;98.13;99845.50;176868;1267;46018;-81
2023/12/05 07:21:31;;;;;;;45.30;25.80;;;;;;;-4.40;98.07;99845.05;177489;1272;46241;-81
2023/12/05 07:25:33;;;;;;;42.10;26.70;;;;;;;-4.40;97.82;99839.50;177006;1267;46568;-81
2023/12/05 07:29:34;;;;;;;39.10;25.00;;;;;;;-4.37;97.96;99834.06;176986;1268;58012;-78
2023/12/05 07:33:36;;;;;;;59.70;28.10;;;;;;;-4.34;97.91;99833.27;178045;1272;46114;-80
2023/12/05 07:37:39;;;;;;;62.20;35.20;;;;;;;-4.27;97.97;99840.89;176746;1272;46021;-81
2023/12/05 07:41:40;;;;;;;46.50;25.60;;;;;;;-4.13;97.52;99841.02;177143;1268;46155;-81
2023/12/05 07:45:43;;;;;;;56.30;37.10;;;;;;;-4.00;97.29;99839.95;176716;1268;46230;-81
2023/12/05 07:49:45;;;;;;;45.50;25.40;;;;;;;-3.83;96.96;99836.70;177353;1267;59413;-81
2023/12/05 07:53:50;;;;;;;41.50;26.20;;;;;;;-3.73;96.72;99836.57;177412;1272;46098;-81
2023/12/05 07:57:52;;;;;;;92.00;57.50;;;;;;;-3.61;96.68;99840.02;176733;1272;46126;-81
2023/12/05 08:01:54;;;;;;;84.20;44.20;;;;;;;-3.48;96.10;99840.34;177101;1268;46140;-81
2023/12/05 08:05:56;;;;;;;64.80;41.10;;;;;;;-3.39;95.67;99834.84;177544;1271;45987;-81
2023/12/05 08:09:57;;;;;;;47.40;27.30;;;;;;;-3.42;94.67;99836.83;177138;1267;59584;-81
2023/12/05 08:13:59;;;;;;;57.30;29.20;;;;;;;-3.47;94.12;99841.66;176973;1272;46213;-81
2023/12/05 08:18:01;;;;;;;43.70;26.50;;;;;;;-3.61;93.24;99843.48;177329;1272;46209;-81
2023/12/05 08:22:03;;;;;;;40.90;23.10;;;;;;;-3.75;93.09;99845.80;177186;1267;45919;-81
2023/12/05 08:26:05;;;;;;;45.30;27.70;;;;;;;-3.85;92.83;99855.11;177690;1272;46126;-81
2023/12/05 08:30:07;;;;;;;41.60;22.60;;;;;;;-4.05;92.99;99849.96;177319;1267;59632;-81
2023/12/05 08:34:09;;;;;;;37.70;21.20;;;;;;;-4.24;93.71;99849.11;177424;1272;46111;-81
2023/12/05 08:38:11;;;;;;;54.40;31.40;;;;;;;-4.40;94.23;99846.25;177457;1268;46040;-81
2023/12/05 08:42:13;;;;;;;59.40;32.00;;;;;;;-4.25;94.90;99843.09;176348;1272;48387;-81
2023/12/05 08:46:16;;;;;;;52.60;33.80;;;;;;;-4.01;94.45;99842.76;176543;1272;46178;-81
2023/12/05 08:50:17;;;;;;;55.90;30.50;;;;;;;-3.77;93.96;99845.36;176760;1267;58086;-81
2023/12/05 08:54:19;;;;;;;54.10;26.70;;;;;;;-3.56;93.49;99852.02;176181;1273;46073;-81
2023/12/05 08:58:21;;;;;;;68.40;35.60;;;;;;;-3.42;93.11;99851.92;176233;1272;45968;-81
2023/12/05 09:02:24;;;;;;;61.00;37.20;;;;;;;-3.21;93.02;99853.02;176572;1268;46229;-80
2023/12/05 09:06:25;;;;;;;67.20;34.80;;;;;;;-3.02;91.94;99857.27;178503;1272;46050;-81
2023/12/05 09:10:27;;;;;;;50.00;27.30;;;;;;;-2.92;90.93;99856.07;177183;1267;59234;-81
2023/12/05 09:14:29;;;;;;;49.00;29.60;;;;;;;-2.86;90.12;99852.06;177533;1267;46331;-81
2023/12/05 09:18:31;;;;;;;46.60;28.50;;;;;;;-2.82;90.09;99848.64;178072;1269;44614;-81
2023/12/05 09:22:33;;;;;;;43.70;26.60;;;;;;;-2.73;89.90;99843.84;177538;1268;46614;-81
2023/12/05 09:26:35;;;;;;;43.00;27.40;;;;;;;-2.64;89.77;99848.73;177703;1267;44518;-81
2023/12/05 09:30:37;;;;;;;44.40;28.30;;;;;;;-2.50;89.57;99844.61;177465;1270;59334;-81
2023/12/05 09:34:40;;;;;;;41.40;27.60;;;;;;;-2.36;89.09;99844.11;176446;1272;44450;-80
2023/12/05 09:38:42;;;;;;;45.60;27.20;;;;;;;-2.24;88.84;99840.76;176990;1267;46013;-80
2023/12/05 09:42:47;;;;;;;41.80;25.00;;;;;;;-2.16;88.86;99842.70;177464;1272;44701;-81
2023/12/05 09:46:52;;;;;;;53.80;30.40;;;;;;;-2.02;88.79;99833.86;177271;1268;46123;-80
2023/12/05 09:50:55;;;;;;;47.40;29.90;;;;;;;-1.86;88.53;99832.41;176301;1271;57111;-81
2023/12/05 09:54:58;;;;;;;43.10;26.40;;;;;;;-1.71;88.43;99833.91;176477;1267;46990;-81
2023/12/05 09:59:01;;;;;;;46.50;29.00;;;;;;;-1.54;88.36;99827.73;178695;1268;46027;-81
2023/12/05 10:03:06;;;;;;;48.20;28.50;;;;;;;-1.45;87.56;99817.81;179371;1267;43648;-81
2023/12/05 10:07:11;;;;;;;42.60;27.80;;;;;;;-1.36;87.18;99817.61;177707;1267;45991;-81
2023/12/05 10:11:14;;;;;;;50.10;30.90;;;;;;;-1.24;86.76;99815.44;176879;1267;58342;-81
2023/12/05 10:15:18;;;;;;;57.20;34.90;;;;;;;-1.17;86.43;99805.04;176218;1267;45994;-81
2023/12/05 10:19:21;;;;;;;40.60;25.80;;;;;;;-1.24;86.64;99796.95;177298;1270;46105;-81
2023/12/05 10:23:24;;;;;;;48.80;30.60;;;;;;;-1.24;87.03;99797.14;177518;1270;46272;-81
2023/12/05 10:27:26;;;;;;;46.00;28.30;;;;;;;-1.18;87.38;99795.48;177593;1267;44790;-82
2023/12/05 10:31:28;;;;;;;45.60;29.80;;;;;;;-1.11;87.26;99790.52;176378;1267;57765;-81
2023/12/05 10:35:31;;;;;;;53.00;26.90;;;;;;;-1.11;87.11;99788.27;177054;1270;46093;-82
2023/12/05 10:39:36;;;;;;;51.70;29.10;;;;;;;-1.16;87.22;99782.90;176664;1273;46792;-81
2023/12/05 10:43:48;;;;;;;46.60;29.20;;;;;;;-1.15;87.61;99780.79;177195;1267;44632;-81
2023/12/05 10:47:49;;;;;;;53.70;30.60;;;;;;;-1.17;87.83;99779.30;176890;1270;44337;-82
2023/12/05 10:51:51;;;;;;;59.80;31.60;;;;;;;-1.19;88.30;99778.50;176864;1267;58108;-81
2023/12/05 10:55:53;;;;;;;48.20;28.30;;;;;;;-1.12;88.62;99779.27;177270;1271;46043;-81
2023/12/05 10:59:55;;;;;;;56.50;32.90;;;;;;;-1.07;88.29;99786.55;176957;1268;44858;-81
2023/12/05 11:04:02;;;;;;;49.10;27.70;;;;;;;-1.08;88.48;99782.55;177287;1267;46131;-81
2023/12/05 11:08:04;;;;;;;49.90;35.30;;;;;;;-1.03;88.42;99785.00;176989;1267;46100;-81
2023/12/05 11:12:08;;;;;;;49.90;32.30;;;;;;;-1.08;88.68;99781.33;177708;1267;57608;-81
2023/12/05 11:16:23;;;;;;;62.70;34.30;;;;;;;-1.07;89.02;99769.64;176428;1267;46126;-81
2023/12/05 11:20:28;;;;;;;38.50;27.20;;;;;;;-1.02;89.45;99768.74;176725;1268;46117;-81
2023/12/05 11:24:30;;;;;;;43.10;27.80;;;;;;;-0.95;89.57;99772.48;177314;1272;46218;-81
2023/12/05 11:29:18;;;;;;;45.30;29.20;;;;;;;-0.89;89.54;99773.06;176931;1267;46002;-81
2023/12/05 11:33:41;;;;;;;44.50;28.80;;;;;;;-0.80;89.31;99771.83;177598;1267;59370;-82
2023/12/05 11:38:02;;;;;;;49.50;29.00;;;;;;;-0.68;89.39;99772.55;177342;1267;46029;-81
2023/12/05 11:42:12;;;;;;;43.80;25.70;;;;;;;-0.61;88.92;99769.61;176776;1267;46018;-81
2023/12/05 11:46:17;;;;;;;44.80;28.60;;;;;;;-0.56;88.44;99768.02;177446;1267;46001;-81
2023/12/05 11:50:19;;;;;;;42.50;29.10;;;;;;;-0.55;88.36;99765.88;176741;1271;46023;-81
2023/12/05 11:54:23;;;;;;;43.40;27.90;;;;;;;-0.58;87.75;99762.86;176990;1267;57987;-81
2023/12/05 11:58:29;;;;;;;58.00;33.00;;;;;;;-0.54;87.76;99759.39;176491;1267;46092;-81
2023/12/05 12:02:31;;;;;;;45.60;28.70;;;;;;;-0.43;88.07;99759.95;177500;1267;46601;-81
2023/12/05 12:06:34;;;;;;;60.40;32.30;;;;;;;-0.37;88.86;99763.52;177140;1270;46012;-81
2023/12/05 12:10:36;;;;;;;48.30;27.70;;;;;;;-0.28;89.55;99761.88;176234;1268;46014;-82
2023/12/05 12:14:41;;;;;;;53.40;32.40;;;;;;;-0.24;89.58;99756.48;176780;1269;59441;-81
2023/12/05 12:18:44;;;;;;;55.30;31.40;;;;;;;-0.20;89.68;99757.02;177592;1267;45304;-82
2023/12/05 12:22:56;;;;;;;47.40;30.00;;;;;;;-0.20;90.24;99758.73;176900;1267;45990;-81
2023/12/05 12:26:58;;;;;;;49.40;30.70;;;;;;;-0.12;90.19;99755.09;176507;1271;46175;-82
2023/12/05 12:31:02;;;;;;;60.20;33.20;;;;;;;-0.00;89.60;99757.33;177040;1270;45974;-82
2023/12/05 12:35:05;;;;;;;52.60;34.30;;;;;;;0.13;89.43;99757.41;177540;1267;58114;-82
2023/12/05 12:39:07;;;;;;;66.50;42.10;;;;;;;0.22;89.07;99761.68;177669;1267;46054;-81
2023/12/05 12:43:12;;;;;;;52.00;31.20;;;;;;;0.27;89.14;99766.70;177075;1267;46015;-81
2023/12/05 12:47:17;;;;;;;47.30;31.00;;;;;;;0.31;89.30;99753.60;176768;1267;46023;-81
2023/12/05 12:51:19;;;;;;;52.20;31.40;;;;;;;0.36;88.74;99742.89;177057;1267;45966;-82
2023/12/05 12:55:21;;;;;;;54.10;31.50;;;;;;;0.30;88.48;99746.66;176663;1267;58314;-81
2023/12/05 12:59:23;;;;;;;49.20;27.80;;;;;;;0.28;89.08;99748.00;176970;1267;46269;-81
2023/12/05 13:03:27;;;;;;;48.10;29.70;;;;;;;0.31;89.65;99746.81;176204;1267;46034;-81
2023/12/05 13:07:30;;;;;;;54.60;28.80;;;;;;;0.40;89.79;99747.27;177178;1267;46031;-82
2023/12/05 13:11:32;;;;;;;67.10;34.50;;;;;;;0.38;89.83;99744.73;177185;1270;46134;-82
2023/12/05 13:15:34;;;;;;;51.30;28.80;;;;;;;0.36;90.12;99751.46;176877;1267;59481;-81
2023/12/05 13:19:36;;;;;;;47.10;29.00;;;;;;;0.28;90.79;99751.50;177441;1267;46136;-82
2023/12/05 13:23:38;;;;;;;51.70;33.50;;;;;;;0.25;91.92;99761.55;178189;1267;46152;-81
2023/12/05 13:27:40;;;;;;;51.90;33.90;;;;;;;0.31;91.80;99755.34;179928;1267;43470;-81
2023/12/05 13:31:42;;;;;;;52.40;31.60;;;;;;;0.30;91.86;99765.52;177975;1267;212503;-82
2023/12/05 13:35:44;;;;;;;50.10;27.30;;;;;;;0.29;92.00;99761.36;177158;1272;59233;-82
2023/12/05 13:39:45;;;;;;;57.30;34.30;;;;;;;0.25;92.48;99760.34;176861;1267;46294;-82
2023/12/05 13:43:47;;;;;;;42.40;27.80;;;;;;;0.25;92.64;99764.01;176962;1270;46152;-81
2023/12/05 13:47:49;;;;;;;49.00;29.50;;;;;;;0.18;93.29;99763.10;176870;1267;46010;-82
2023/12/05 13:51:51;;;;;;;57.70;32.30;;;;;;;0.13;92.50;99763.48;176473;1267;46039;-82
2023/12/05 13:55:53;;;;;;;59.90;31.20;;;;;;;0.06;92.64;99771.16;176612;1267;58096;-81
2023/12/05 13:59:55;;;;;;;57.90;29.80;;;;;;;-0.01;92.87;99771.48;177045;1270;46104;-82
2023/12/05 14:03:57;;;;;;;49.70;28.60;;;;;;;-0.07;93.69;99771.21;177084;1267;46012;-82
2023/12/05 14:07:59;;;;;;;50.80;30.80;;;;;;;-0.20;94.24;99779.48;177240;1267;46129;-81
2023/12/05 14:12:01;;;;;;;75.40;40.70;;;;;;;-0.51;93.83;99781.91;176376;1268;46017;-81
2023/12/05 14:16:03;;;;;;;52.30;30.30;;;;;;;-0.64;93.64;99784.54;177763;1267;58304;-81
2023/12/05 14:20:08;;;;;;;51.80;30.70;;;;;;;-0.76;94.03;99781.05;176719;1267;46260;-80
2023/12/05 14:24:10;;;;;;;40.80;26.00;;;;;;;-0.81;94.71;99781.08;176897;1267;46126;-80
2023/12/05 14:28:12;;;;;;;47.70;28.90;;;;;;;-0.86;94.86;99783.91;176346;1267;46050;-81
2023/12/05 14:32:14;;;;;;;48.20;27.80;;;;;;;-0.88;94.94;99779.83;176422;1271;46194;-80
2023/12/05 14:36:16;;;;;;;49.80;26.00;;;;;;;-0.89;94.59;99773.61;176657;1267;59884;-82
2023/12/05 14:40:19;;;;;;;136.40;68.20;;;;;;;-0.88;95.93;99786.62;177153;1267;44858;-83
2023/12/05 14:44:21;;;;;;;102.70;51.20;;;;;;;-0.81;96.37;99783.55;176914;1267;45899;-83
2023/12/05 14:48:23;;;;;;;220.90;96.20;;;;;;;-0.77;95.79;99775.38;177007;1268;46097;-84
2023/12/05 14:52:25;;;;;;;179.80;72.80;;;;;;;-0.80;96.34;99779.46;176666;1268;46119;-83
2023/12/05 14:56:27;;;;;;;80.80;35.50;;;;;;;-0.85;96.78;99781.98;176947;1267;58144;-83
2023/12/05 15:00:29;;;;;;;53.50;32.80;;;;;;;-0.85;96.58;99787.88;176705;1267;46232;-82
2023/12/05 15:04:31;;;;;;;47.00;28.20;;;;;;;-0.79;96.03;99779.98;177252;1267;46099;-83
2023/12/05 15:08:33;;;;;;;60.90;31.90;;;;;;;-0.73;95.76;99782.34;177491;1270;46129;-84
2023/12/05 15:12:35;;;;;;;50.30;33.00;;;;;;;-0.73;96.33;99784.41;177917;1268;46418;-81
2023/12/05 15:16:38;;;;;;;49.10;28.20;;;;;;;-0.78;96.46;99788.61;177308;1267;58099;-82
2023/12/05 15:20:40;;;;;;;114.80;58.80;;;;;;;-0.75;96.43;99790.94;177420;1267;46100;-82
2023/12/05 15:24:42;;;;;;;55.70;32.80;;;;;;;-0.67;95.99;99794.46;177166;1270;45979;-83
2023/12/05 15:28:45;;;;;;;51.30;29.50;;;;;;;-0.61;95.41;99798.89;177175;1267;46261;-83
2023/12/05 15:32:50;;;;;;;44.60;25.80;;;;;;;-0.54;95.44;99804.35;177304;1267;46070;-83
2023/12/05 15:36:53;;;;;;;42.20;25.30;;;;;;;-0.51;95.12;99806.62;177022;1267;59988;-83
2023/12/05 15:40:55;;;;;;;42.20;25.30;;;;;;;-0.45;94.45;99810.73;177740;1267;46184;-83
2023/12/05 15:44:57;;;;;;;50.80;29.40;;;;;;;-0.45;94.22;99816.47;177483;1267;46098;-82
2023/12/05 15:48:59;;;;;;;46.50;30.40;;;;;;;-0.51;93.78;99812.88;177177;1268;46098;-83
2023/12/05 15:53:03;;;;;;;51.90;29.50;;;;;;;-0.54;93.34;99808.17;176827;1267;44712;-83
2023/12/05 15:57:05;;;;;;;53.90;30.70;;;;;;;-0.55;92.68;99808.04;176722;1267;60444;-83
2023/12/05 16:01:07;;;;;;;48.90;25.70;;;;;;;-0.56;91.92;99811.40;176602;1267;46044;-83
2023/12/05 16:05:09;;;;;;;48.80;29.00;;;;;;;-0.63;91.59;99815.88;177115;1267;46027;-83
2023/12/05 16:09:12;;;;;;;47.40;27.20;;;;;;;-0.73;91.98;99810.36;176790;1268;44263;-83
2023/12/05 16:13:15;;;;;;;45.10;25.40;;;;;;;-0.76;92.47;99812.23;177235;1267;44125;-84
2023/12/05 16:17:17;;;;;;;42.50;25.60;;;;;;;-0.76;93.03;99814.67;177050;1267;58545;-83
2023/12/05 16:21:20;;;;;;;42.10;24.60;;;;;;;-0.76;93.63;99815.36;176836;1268;46090;-83
2023/12/05 16:25:22;;;;;;;38.20;22.60;;;;;;;-0.71;94.39;99812.73;176327;1267;46146;-83
2023/12/05 16:29:24;;;;;;;41.20;25.60;;;;;;;-0.62;94.60;99812.69;176934;1267;46117;-81
2023/12/05 16:33:28;;;;;;;50.20;28.60;;;;;;;-0.62;94.56;99806.92;176564;1267;46143;-82
2023/12/05 16:37:30;;;;;;;46.40;27.60;;;;;;;-0.62;95.16;99817.91;177761;1267;58190;-81
2023/12/05 16:41:34;;;;;;;44.60;29.90;;;;;;;-0.58;95.41;99822.80;177112;1269;47944;-81
2023/12/05 16:45:36;;;;;;;64.90;32.60;;;;;;;-0.56;95.82;99817.50;177851;1267;46060;-80
2023/12/05 16:49:38;;;;;;;60.90;37.60;;;;;;;-0.53;96.28;99813.52;180240;1269;44348;-81
2023/12/05 16:53:41;;;;;;;57.10;33.70;;;;;;;-0.50;96.12;99813.92;177567;1269;45847;-81
2023/12/05 16:57:43;;;;;;;58.10;35.50;;;;;;;-0.49;96.90;99812.84;177100;1267;59401;-81
2023/12/05 17:01:45;;;;;;;53.00;31.60;;;;;;;-0.49;97.03;99827.80;179315;1267;46020;-81
2023/12/05 17:05:47;;;;;;;65.50;37.40;;;;;;;-0.50;97.28;99821.21;177141;1267;45950;-81
2023/12/05 17:09:49;;;;;;;70.50;41.20;;;;;;;-0.55;97.50;99826.31;178262;1268;46002;-81
2023/12/05 17:13:51;;;;;;;55.80;34.70;;;;;;;-0.56;97.61;99821.83;177483;1267;46052;-81
2023/12/05 17:17:53;;;;;;;64.70;36.50;;;;;;;-0.55;98.43;99824.42;178099;1268;58194;-81
2023/12/05 17:21:55;;;;;;;76.10;36.90;;;;;;;-0.51;98.84;99823.20;177762;1267;46001;-81
2023/12/05 17:25:57;;;;;;;60.20;35.10;;;;;;;-0.49;98.95;99819.80;176475;1268;46784;-81
2023/12/05 17:29:59;;;;;;;70.60;38.90;;;;;;;-0.45;99.12;99820.33;178307;1268;46031;-81
2023/12/05 17:34:00;;;;;;;73.10;42.60;;;;;;;-0.42;98.83;99822.46;177263;1267;46075;-82
2023/12/05 17:38:02;;;;;;;59.00;37.80;;;;;;;-0.43;98.73;99829.45;176727;1268;58467;-82
2023/12/05 17:42:04;;;;;;;68.20;43.60;;;;;;;-0.44;98.64;99831.75;177825;1267;44847;-82
2023/12/05 17:46:06;;;;;;;83.90;46.20;;;;;;;-0.43;99.05;99836.45;177461;1267;44518;-81
2023/12/05 17:50:09;;;;;;;73.20;42.10;;;;;;;-0.39;98.93;99834.02;177203;1267;46126;-82
2023/12/05 17:54:12;;;;;;;77.70;43.50;;;;;;;-0.39;99.28;99830.49;178067;1270;45062;-80
2023/12/05 17:58:14;;;;;;;91.20;47.30;;;;;;;-0.46;99.67;99828.36;177908;1272;57903;-82
2023/12/05 18:02:17;;;;;;;75.00;43.20;;;;;;;-0.52;99.13;99827.07;177452;1267;46100;-82
2023/12/05 18:06:19;;;;;;;74.40;41.30;;;;;;;-0.65;98.49;99827.80;176417;1267;46130;-84
2023/12/05 18:10:21;;;;;;;66.80;40.90;;;;;;;-0.90;98.87;99826.73;176530;1268;45861;-83
2023/12/05 18:14:24;;;;;;;105.50;58.60;;;;;;;-1.17;99.90;99840.52;176680;1267;46145;-84
2023/12/05 18:18:26;;;;;;;274.40;149.70;;;;;;;-1.25;100.00;99841.54;177292;1267;59553;-84
2023/12/05 18:22:28;;;;;;;165.30;93.80;;;;;;;-1.43;100.00;99846.27;176914;1267;46149;-84
2023/12/05 18:26:30;;;;;;;105.10;49.40;;;;;;;-1.37;100.00;99853.15;176429;1268;46137;-84